createdAt,value
2019-02-27T00:00:11.441Z,7.40
2019-02-27T00:02:40.365Z,7.52
2019-02-27T00:05:09.045Z,7.57
2019-02-27T00:07:37.493Z,7.52
2019-02-27T00:10:07.251Z,7.31
2019-02-27T00:12:35.708Z,6.98
2019-02-27T00:15:04.936Z,6.98
2019-02-27T00:17:34.499Z,6.68
2019-02-27T00:20:05.011Z,5.64
2019-02-27T00:22:33.816Z,6.38
2019-02-27T00:25:03.431Z,6.44
2019-02-27T00:27:32.365Z,6.53
2019-02-27T00:30:04.627Z,6.56
2019-02-27T00:32:31.018Z,6.62
2019-02-27T00:34:59.321Z,6.50
2019-02-27T00:37:27.727Z,6.63
2019-02-27T00:39:56.170Z,6.72
2019-02-27T00:42:33.267Z,6.39
2019-02-27T00:44:54.871Z,6.23
2019-02-27T00:47:23.270Z,6.26
2019-02-27T00:49:51.626Z,6.32
2019-02-27T00:52:20.111Z,6.36
2019-02-27T00:54:50.360Z,6.53
2019-02-27T00:57:20.889Z,6.54
2019-02-27T00:59:48.886Z,6.51
2019-02-27T01:02:19.911Z,6.23
2019-02-27T01:04:47.347Z,6.25
2019-02-27T01:07:20.240Z,6.35
2019-02-27T01:09:47.142Z,6.34
2019-02-27T01:12:15.448Z,6.31
2019-02-27T01:14:43.752Z,6.44
2019-02-27T01:17:12.109Z,6.21
2019-02-27T01:19:42.697Z,6.19
2019-02-27T01:22:10.721Z,6.20
2019-02-27T01:24:39.063Z,6.21
2019-02-27T01:27:07.352Z,6.17
2019-02-27T01:29:36.019Z,6.26
2019-02-27T01:32:04.385Z,6.00
2019-02-27T01:34:32.831Z,5.88
2019-02-27T01:37:01.181Z,5.57
2019-02-27T01:39:29.579Z,5.50
2019-02-27T01:41:58.535Z,5.65
2019-02-27T01:44:27.124Z,5.80
2019-02-27T01:46:55.483Z,5.91
2019-02-27T01:49:24.959Z,5.82
2019-02-27T01:51:53.579Z,5.77
2019-02-27T01:54:21.911Z,6.06
2019-02-27T01:56:50.189Z,6.08
2019-02-27T01:59:18.777Z,6.03
2019-02-27T02:01:47.151Z,6.11
2019-02-27T02:04:20.001Z,5.89
2019-02-27T02:06:45.559Z,5.61
2019-02-27T02:09:30.804Z,5.82
2019-02-27T02:12:01.112Z,5.79
2019-02-27T02:14:38.351Z,5.73
2019-02-27T02:17:09.956Z,5.67
2019-02-27T02:19:56.741Z,5.31
2019-02-27T02:22:41.305Z,5.18
2019-02-27T02:25:21.729Z,5.48
2019-02-27T02:28:19.160Z,5.31
2019-02-27T02:31:04.942Z,5.41
2019-02-27T02:33:36.362Z,5.50
2019-02-27T02:36:32.948Z,5.42
2019-02-27T02:39:24.214Z,5.41
2019-02-27T02:42:13.770Z,5.40
2019-02-27T02:45:04.601Z,5.43
2019-02-27T02:48:04.740Z,5.24
2019-02-27T02:50:54.270Z,5.31
2019-02-27T02:54:02.060Z,5.48
2019-02-27T02:56:36.205Z,5.30
2019-02-27T02:59:36.744Z,5.10
2019-02-27T03:02:08.284Z,5.00
2019-02-27T03:04:48.243Z,5.02
2019-02-27T03:07:22.436Z,5.04
2019-02-27T03:10:10.795Z,4.96
2019-02-27T03:13:07.120Z,5.09
2019-02-27T03:15:52.625Z,5.10
2019-02-27T03:18:45.537Z,5.13
2019-02-27T03:21:35.206Z,4.81
2019-02-27T03:24:27.943Z,4.72
2019-02-27T03:27:02.600Z,4.86
2019-02-27T03:30:05.911Z,4.72
2019-02-27T03:32:49.198Z,4.74
2019-02-27T03:35:42.145Z,4.55
2019-02-27T03:38:36.360Z,4.44
2019-02-27T03:41:23.640Z,4.40
2019-02-27T03:44:10.397Z,4.49
2019-02-27T03:46:51.040Z,4.48
2019-02-27T03:49:55.922Z,4.60
2019-02-27T03:52:37.347Z,4.49
2019-02-27T03:55:20.795Z,4.47
2019-02-27T03:58:04.705Z,4.50
2019-02-27T04:00:44.199Z,4.39
2019-02-27T04:03:44.995Z,4.56
2019-02-27T04:06:25.633Z,4.47
2019-02-27T04:08:57.773Z,3.98
2019-02-27T04:11:26.326Z,4.11
2019-02-27T04:13:54.799Z,4.06
2019-02-27T04:16:28.866Z,4.19
2019-02-27T04:18:53.150Z,3.96
2019-02-27T04:21:25.027Z,4.03
2019-02-27T04:23:51.842Z,4.26
2019-02-27T04:26:20.343Z,4.06
2019-02-27T04:28:48.645Z,4.25
2019-02-27T04:31:16.971Z,4.09
2019-02-27T04:33:45.503Z,4.09
2019-02-27T04:36:14.068Z,4.10
2019-02-27T04:38:42.796Z,4.15
2019-02-27T04:41:11.239Z,4.09
2019-02-27T04:43:39.607Z,4.07
2019-02-27T04:46:07.900Z,4.05
2019-02-27T04:48:36.227Z,4.02
2019-02-27T04:51:04.616Z,4.08
2019-02-27T04:53:32.985Z,4.20
2019-02-27T04:56:01.367Z,4.21
2019-02-27T04:58:31.299Z,4.23
2019-02-27T05:01:01.059Z,4.14
2019-02-27T05:03:29.396Z,4.17
2019-02-27T05:05:59.464Z,4.15
2019-02-27T05:08:27.835Z,4.13
2019-02-27T05:10:56.136Z,4.17
2019-02-27T05:13:24.457Z,4.14
2019-02-27T05:15:52.832Z,4.12
2019-02-27T05:18:21.189Z,3.98
2019-02-27T05:20:49.462Z,4.05
2019-02-27T05:23:19.539Z,4.16
2019-02-27T05:25:47.923Z,4.10
2019-02-27T05:28:16.259Z,4.01
2019-02-27T05:30:45.233Z,3.89
2019-02-27T05:33:14.263Z,4.03
2019-02-27T05:35:42.646Z,4.23
2019-02-27T05:38:11.114Z,4.22
2019-02-27T05:40:39.479Z,4.11
2019-02-27T05:43:07.810Z,4.14
2019-02-27T05:45:36.134Z,4.04
2019-02-27T05:48:04.478Z,3.70
2019-02-27T05:50:34.340Z,3.63
2019-02-27T05:53:02.917Z,3.49
2019-02-27T05:55:31.406Z,3.52
2019-02-27T05:57:59.767Z,3.65
2019-02-27T06:00:28.169Z,3.50
2019-02-27T06:02:56.940Z,3.67
2019-02-27T06:05:25.479Z,3.63
2019-02-27T06:07:53.844Z,3.71
2019-02-27T06:10:23.614Z,3.47
2019-02-27T06:12:52.028Z,3.47
2019-02-27T06:15:20.468Z,3.33
2019-02-27T06:17:49.730Z,3.11
2019-02-27T06:20:18.171Z,3.28
2019-02-27T06:22:46.546Z,3.28
2019-02-27T06:25:21.912Z,3.37
2019-02-27T06:27:47.597Z,3.14
2019-02-27T06:30:18.641Z,3.40
2019-02-27T06:32:47.360Z,3.57
2019-02-27T06:35:16.121Z,3.61
2019-02-27T06:37:44.666Z,3.43
2019-02-27T06:40:18.385Z,3.28
2019-02-27T06:42:47.124Z,3.18
2019-02-27T06:45:18.500Z,3.25
2019-02-27T06:47:46.798Z,3.09
2019-02-27T06:50:16.273Z,3.28
2019-02-27T06:52:44.755Z,3.63
2019-02-27T06:55:14.583Z,3.90
2019-02-27T06:57:42.973Z,4.01
2019-02-27T07:00:16.569Z,3.98
2019-02-27T07:02:44.975Z,3.90
2019-02-27T07:05:14.099Z,4.02
2019-02-27T07:07:42.623Z,4.13
2019-02-27T07:10:19.409Z,5.78
2019-02-27T07:12:45.909Z,9.65
2019-02-27T07:15:21.602Z,11.61
2019-02-27T07:17:50.012Z,12.76
2019-02-27T07:20:18.455Z,14.01
2019-02-27T07:22:47.087Z,15.21
2019-02-27T07:25:17.666Z,16.25
2019-02-27T07:27:46.094Z,16.43
2019-02-27T07:30:18.511Z,16.57
2019-02-27T07:32:46.946Z,16.88
2019-02-27T07:35:16.479Z,16.88
2019-02-27T07:37:48.006Z,17.10
2019-02-27T07:40:16.990Z,17.21
2019-02-27T07:42:45.902Z,18.40
2019-02-27T07:45:22.823Z,18.60
2019-02-27T07:47:51.368Z,20.34
2019-02-27T07:50:20.734Z,21.06
2019-02-27T07:52:49.130Z,21.54
2019-02-27T07:55:21.797Z,21.71
2019-02-27T07:57:48.326Z,21.89
2019-02-27T08:00:19.776Z,22.80
2019-02-27T08:02:48.085Z,22.07
2019-02-27T08:05:16.505Z,23.42
2019-02-27T08:07:48.811Z,24.12
2019-02-27T08:10:22.327Z,24.24
2019-02-27T08:12:55.598Z,23.77
2019-02-27T08:15:20.986Z,23.54
2019-02-27T08:17:49.415Z,24.74
2019-02-27T08:20:21.080Z,25.42
2019-02-27T08:22:49.717Z,25.51
2019-02-27T08:25:19.748Z,24.92
2019-02-27T08:27:48.140Z,25.76
2019-02-27T08:30:22.548Z,26.46
2019-02-27T08:32:50.930Z,26.26
2019-02-27T08:35:19.615Z,27.09
2019-02-27T08:37:47.918Z,26.44
2019-02-27T08:40:16.281Z,26.77
2019-02-27T08:42:44.665Z,27.68
2019-02-27T08:45:20.010Z,27.88
2019-02-27T08:47:47.986Z,28.11
2019-02-27T08:50:21.462Z,28.46
2019-02-27T08:52:51.540Z,28.80
2019-02-27T08:55:22.548Z,29.91
2019-02-27T08:57:55.796Z,28.37
2019-02-27T09:00:26.109Z,28.67
2019-02-27T09:02:55.727Z,28.88
2019-02-27T09:05:24.251Z,28.73
2019-02-27T09:07:52.664Z,29.96
2019-02-27T09:10:23.177Z,28.91
2019-02-27T09:12:52.656Z,30.23
2019-02-27T09:15:21.186Z,29.54
2019-02-27T09:17:49.867Z,31.03
2019-02-27T09:20:22.749Z,30.79
2019-02-27T09:22:51.172Z,29.79
2019-02-27T09:25:23.626Z,29.75
2019-02-27T09:27:49.633Z,29.26
2019-02-27T09:30:20.672Z,29.50
2019-02-27T09:32:49.003Z,30.64
2019-02-27T09:35:17.524Z,29.32
2019-02-27T09:37:48.366Z,30.18
2019-02-27T09:40:23.902Z,29.35
2019-02-27T09:42:53.047Z,29.83
2019-02-27T09:45:27.336Z,30.52
2019-02-27T09:47:59.277Z,30.99
2019-02-27T09:50:40.282Z,29.04
2019-02-27T09:53:08.794Z,30.79
2019-02-27T09:55:37.177Z,29.74
2019-02-27T09:58:10.379Z,30.71
2019-02-27T10:00:41.679Z,30.71
2019-02-27T10:03:10.271Z,30.32
2019-02-27T10:05:40.727Z,30.51
2019-02-27T10:08:09.455Z,30.24
2019-02-27T10:10:37.770Z,31.40
2019-02-27T10:13:06.243Z,30.51
2019-02-27T10:15:34.756Z,31.22
2019-02-27T10:18:03.262Z,31.21
2019-02-27T10:20:31.627Z,31.58
2019-02-27T10:22:59.962Z,31.57
2019-02-27T10:25:28.699Z,32.52
2019-02-27T10:27:57.106Z,31.72
2019-02-27T10:30:25.669Z,31.67
2019-02-27T10:32:54.104Z,31.98
2019-02-27T10:35:23.052Z,32.14
2019-02-27T10:37:54.371Z,33.27
2019-02-27T10:40:26.188Z,32.43
2019-02-27T10:42:54.810Z,31.74
2019-02-27T10:45:23.196Z,30.38
2019-02-27T10:47:51.523Z,32.08
2019-02-27T10:50:19.888Z,32.18
2019-02-27T10:52:50.008Z,32.58
2019-02-27T10:55:27.085Z,32.57
2019-02-27T10:57:55.702Z,31.93
2019-02-27T11:00:35.181Z,31.39
2019-02-27T11:03:03.808Z,32.34
2019-02-27T11:05:39.670Z,32.96
2019-02-27T11:08:08.048Z,32.92
2019-02-27T11:10:36.564Z,32.72
2019-02-27T11:13:06.734Z,31.43
2019-02-27T11:15:35.168Z,33.25
2019-02-27T11:18:05.503Z,33.73
2019-02-27T11:20:33.981Z,33.74
2019-02-27T11:23:06.417Z,33.55
2019-02-27T11:25:32.726Z,33.62
2019-02-27T11:28:01.167Z,33.60
2019-02-27T11:30:40.682Z,34.16
2019-02-27T11:33:09.406Z,33.58
2019-02-27T11:35:37.743Z,34.16
2019-02-27T11:38:06.220Z,34.00
2019-02-27T11:40:34.840Z,34.51
2019-02-27T11:43:06.710Z,33.67
2019-02-27T11:45:33.318Z,34.01
2019-02-27T11:48:01.654Z,34.54
2019-02-27T11:50:30.020Z,35.57
2019-02-27T11:53:01.764Z,35.03
2019-02-27T11:55:28.484Z,34.64
2019-02-27T11:57:56.813Z,34.45
2019-02-27T12:00:31.284Z,35.12
2019-02-27T12:02:59.812Z,35.96
2019-02-27T12:05:33.718Z,35.33
2019-02-27T12:07:58.958Z,35.64
2019-02-27T12:10:29.738Z,35.89
2019-02-27T12:13:00.807Z,36.21
2019-02-27T12:15:28.200Z,35.76
2019-02-27T12:17:59.696Z,33.52
2019-02-27T12:20:26.749Z,34.57
2019-02-27T12:22:55.219Z,35.83
2019-02-27T12:25:26.912Z,36.15
2019-02-27T12:27:56.897Z,37.29
2019-02-27T12:30:27.030Z,36.63
2019-02-27T12:32:56.608Z,37.02
2019-02-27T12:35:27.579Z,35.97
2019-02-27T12:37:56.036Z,36.60
2019-02-27T12:40:25.235Z,35.82
2019-02-27T12:42:53.833Z,37.26
2019-02-27T12:45:29.853Z,36.48
2019-02-27T12:47:58.645Z,35.74
2019-02-27T12:50:31.037Z,36.76
2019-02-27T12:52:58.524Z,36.73
2019-02-27T12:55:28.339Z,37.10
2019-02-27T12:57:56.635Z,37.75
2019-02-27T13:00:29.718Z,37.62
2019-02-27T13:02:59.175Z,36.12
2019-02-27T13:05:27.946Z,35.80
2019-02-27T13:07:56.384Z,35.30
2019-02-27T13:10:26.157Z,34.42
2019-02-27T13:12:54.516Z,33.34
2019-02-27T13:15:25.052Z,33.22
2019-02-27T13:17:57.587Z,33.61
2019-02-27T13:20:34.299Z,32.52
2019-02-27T13:23:05.048Z,31.70
2019-02-27T13:25:32.765Z,31.17
2019-02-27T13:28:01.067Z,30.96
2019-02-27T13:30:29.647Z,30.67
2019-02-27T13:33:00.606Z,30.01
2019-02-27T13:35:29.077Z,29.83
2019-02-27T13:37:57.645Z,29.75
2019-02-27T13:40:28.444Z,29.79
2019-02-27T13:42:56.949Z,29.56
2019-02-27T13:45:27.762Z,30.27
2019-02-27T13:47:56.117Z,30.62
2019-02-27T13:50:26.780Z,30.83
2019-02-27T13:52:58.578Z,31.21
2019-02-27T13:55:26.951Z,31.15
2019-02-27T13:57:58.798Z,31.74
2019-02-27T14:00:36.722Z,32.04
2019-02-27T14:03:05.193Z,32.07
2019-02-27T14:05:40.715Z,31.34
2019-02-27T14:08:09.031Z,30.81
2019-02-27T14:10:37.491Z,31.65
2019-02-27T14:13:08.609Z,31.43
2019-02-27T14:15:36.245Z,31.42
2019-02-27T14:18:04.621Z,30.84
2019-02-27T14:20:36.485Z,30.20
2019-02-27T14:23:04.965Z,30.11
2019-02-27T14:25:33.980Z,28.64
2019-02-27T14:28:02.464Z,28.59
2019-02-27T14:30:39.490Z,28.29
2019-02-27T14:33:07.939Z,27.84
2019-02-27T14:35:36.693Z,28.04
2019-02-27T14:38:05.351Z,27.47
2019-02-27T14:40:37.687Z,27.24
2019-02-27T14:43:04.015Z,27.42
2019-02-27T14:45:32.380Z,27.40
2019-02-27T14:48:00.708Z,26.67
2019-02-27T14:50:33.498Z,26.65
2019-02-27T14:52:59.951Z,26.08
2019-02-27T14:55:28.385Z,25.92
2019-02-27T14:57:56.879Z,25.81
2019-02-27T15:00:27.304Z,25.46
2019-02-27T15:02:56.520Z,25.49
2019-02-27T15:05:24.870Z,24.87
2019-02-27T15:07:54.653Z,24.79
2019-02-27T15:10:23.850Z,25.05
2019-02-27T15:12:55.179Z,24.92
2019-02-27T15:15:32.567Z,25.18
2019-02-27T15:18:00.976Z,25.10
2019-02-27T15:20:31.442Z,24.76
2019-02-27T15:22:59.911Z,24.78
2019-02-27T15:25:28.255Z,24.85
2019-02-27T15:27:58.670Z,24.77
2019-02-27T15:30:31.948Z,23.63
2019-02-27T15:33:03.704Z,24.05
2019-02-27T15:35:30.479Z,23.72
2019-02-27T15:37:58.939Z,23.46
2019-02-27T15:40:30.057Z,23.63
2019-02-27T15:42:59.037Z,23.47
2019-02-27T15:45:28.504Z,23.23
2019-02-27T15:47:56.943Z,23.42
2019-02-27T15:50:27.812Z,23.13
2019-02-27T15:52:56.112Z,23.06
2019-02-27T15:55:24.519Z,22.84
2019-02-27T15:57:54.152Z,22.85
2019-02-27T16:00:27.958Z,22.85
2019-02-27T16:02:56.422Z,22.83
2019-02-27T16:05:29.869Z,22.90
2019-02-27T16:07:55.071Z,22.71
2019-02-27T16:10:27.767Z,22.40
2019-02-27T16:12:59.699Z,22.37
2019-02-27T16:15:26.453Z,22.07
2019-02-27T16:17:54.792Z,21.90
2019-02-27T16:20:27.218Z,21.79
2019-02-27T16:22:55.545Z,21.81
2019-02-27T16:25:27.908Z,21.73
2019-02-27T16:27:56.316Z,21.70
2019-02-27T16:30:32.983Z,21.77
2019-02-27T16:33:01.482Z,21.83
2019-02-27T16:35:29.929Z,21.84
2019-02-27T16:37:58.492Z,21.82
2019-02-27T16:40:27.930Z,21.70
2019-02-27T16:42:56.654Z,21.63
2019-02-27T16:45:31.915Z,21.39
2019-02-27T16:47:58.416Z,21.31
2019-02-27T16:50:28.236Z,21.13
2019-02-27T16:52:56.800Z,21.06
2019-02-27T16:55:26.807Z,20.74
2019-02-27T16:57:57.649Z,20.57
2019-02-27T17:00:31.369Z,20.22
2019-02-27T17:03:00.104Z,20.40
2019-02-27T17:05:28.502Z,20.09
2019-02-27T17:08:00.410Z,19.54
2019-02-27T17:10:35.663Z,19.46
2019-02-27T17:13:04.149Z,19.25
2019-02-27T17:15:35.762Z,19.27
2019-02-27T17:18:02.521Z,19.35
2019-02-27T17:20:31.154Z,19.28
2019-02-27T17:22:59.585Z,19.09
2019-02-27T17:25:30.069Z,18.40
2019-02-27T17:27:58.162Z,18.34
2019-02-27T17:30:37.685Z,18.01
2019-02-27T17:33:05.411Z,18.07
2019-02-27T17:35:33.859Z,17.93
2019-02-27T17:38:03.173Z,17.47
2019-02-27T17:40:36.224Z,17.27
2019-02-27T17:43:01.892Z,16.74
2019-02-27T17:45:30.960Z,16.67
2019-02-27T17:47:59.503Z,16.37
2019-02-27T17:50:31.268Z,16.67
2019-02-27T17:52:58.070Z,16.61
2019-02-27T17:55:26.481Z,16.73
2019-02-27T17:57:57.867Z,16.58
2019-02-27T18:00:28.585Z,16.31
2019-02-27T18:02:56.963Z,16.01
2019-02-27T18:05:26.197Z,16.10
2019-02-27T18:07:56.414Z,16.28
2019-02-27T18:10:24.950Z,15.77
2019-02-27T18:12:53.368Z,15.31
2019-02-27T18:15:22.883Z,15.47
2019-02-27T18:17:51.699Z,15.27
2019-02-27T18:20:24.289Z,15.09
2019-02-27T18:22:50.567Z,14.97
2019-02-27T18:25:19.070Z,14.77
2019-02-27T18:27:48.000Z,14.80
2019-02-27T18:30:21.105Z,14.73
2019-02-27T18:32:49.858Z,14.46
2019-02-27T18:35:19.446Z,14.18
2019-02-27T18:37:53.101Z,13.96
2019-02-27T18:40:20.086Z,14.04
2019-02-27T18:42:48.589Z,14.01
2019-02-27T18:45:22.394Z,14.23
2019-02-27T18:47:50.797Z,13.98
2019-02-27T18:50:19.278Z,13.79
2019-02-27T18:52:47.708Z,13.74
2019-02-27T18:55:16.366Z,14.10
2019-02-27T18:57:47.167Z,13.85
2019-02-27T19:00:23.842Z,13.73
2019-02-27T19:02:54.582Z,13.83
2019-02-27T19:05:23.039Z,13.58
2019-02-27T19:07:54.841Z,13.43
2019-02-27T19:10:21.940Z,13.40
2019-02-27T19:12:50.418Z,13.24
2019-02-27T19:15:22.070Z,12.97
2019-02-27T19:17:50.488Z,13.10
2019-02-27T19:20:25.147Z,13.39
2019-02-27T19:22:53.910Z,13.03
2019-02-27T19:25:22.354Z,12.99
2019-02-27T19:27:50.982Z,12.72
2019-02-27T19:30:20.186Z,13.07
2019-02-27T19:32:49.156Z,13.08
2019-02-27T19:35:21.284Z,12.98
2019-02-27T19:37:49.501Z,12.75
2019-02-27T19:40:20.713Z,12.45
2019-02-27T19:43:03.153Z,12.74
2019-02-27T19:45:31.614Z,12.72
2019-02-27T19:48:01.011Z,12.06
2019-02-27T19:50:29.513Z,11.87
2019-02-27T19:53:03.271Z,11.78
2019-02-27T19:55:28.175Z,11.63
2019-02-27T19:57:56.569Z,11.96
2019-02-27T20:00:33.722Z,12.26
2019-02-27T20:03:01.085Z,12.11
2019-02-27T20:05:30.213Z,12.03
2019-02-27T20:07:58.598Z,12.14
2019-02-27T20:10:30.958Z,12.02
2019-02-27T20:12:57.984Z,11.77
2019-02-27T20:15:27.109Z,11.18
2019-02-27T20:17:55.417Z,10.89
2019-02-27T20:20:24.114Z,11.12
2019-02-27T20:22:53.487Z,11.20
2019-02-27T20:25:26.278Z,11.22
2019-02-27T20:27:57.976Z,11.30
2019-02-27T20:30:25.355Z,11.18
2019-02-27T20:32:54.120Z,11.04
2019-02-27T20:35:22.447Z,10.87
2019-02-27T20:37:50.980Z,10.95
2019-02-27T20:40:20.587Z,11.24
2019-02-27T20:42:50.741Z,11.38
2019-02-27T20:45:23.070Z,11.26
2019-02-27T20:47:57.701Z,10.80
2019-02-27T20:50:44.650Z,10.80
2019-02-27T20:53:14.723Z,11.12
2019-02-27T20:55:43.226Z,10.82
2019-02-27T20:58:16.161Z,10.74
2019-02-27T21:00:42.278Z,10.60
2019-02-27T21:03:10.744Z,10.44
2019-02-27T21:05:41.091Z,10.26
